sensor_id;sensor_type;location;lat;lon;timestamp;temperature;humidity
32348;DHT22;18821;44.800;10.326;2024-03-07T00:02:18;9.00;99.90
32348;DHT22;18821;44.800;10.326;2024-03-07T00:04:44;9.00;99.90
32348;DHT22;18821;44.800;10.326;2024-03-07T00:07:10;8.90;99.90
32348;DHT22;18821;44.800;10.326;2024-03-07T00:09:36;9.00;99.90
32348;DHT22;18821;44.800;10.326;2024-03-07T00:12:03;9.00;99.90
32348;DHT22;18821;44.800;10.326;2024-03-07T00:14:31;9.00;99.90
32348;DHT22;18821;44.800;10.326;2024-03-07T00:16:58;8.90;99.90
32348;DHT22;18821;44.800;10.326;2024-03-07T00:19:25;9.00;99.90
32348;DHT22;18821;44.800;10.326;2024-03-07T00:21:53;9.00;99.90
32348;DHT22;18821;44.800;10.326;2024-03-07T00:24:20;9.00;99.90
32348;DHT22;18821;44.800;10.326;2024-03-07T00:26:46;9.10;99.90
32348;DHT22;18821;44.800;10.326;2024-03-07T00:29:15;9.10;99.90
32348;DHT22;18821;44.800;10.326;2024-03-07T00:31:47;9.10;99.90
32348;DHT22;18821;44.800;10.326;2024-03-07T00:34:13;9.10;99.90
32348;DHT22;18821;44.800;10.326;2024-03-07T00:36:45;9.10;99.90
32348;DHT22;18821;44.800;10.326;2024-03-07T00:39:12;9.10;99.90
32348;DHT22;18821;44.800;10.326;2024-03-07T00:41:39;9.10;99.90
32348;DHT22;18821;44.800;10.326;2024-03-07T00:44:05;9.10;99.90
32348;DHT22;18821;44.800;10.326;2024-03-07T00:46:32;9.10;99.90
32348;DHT22;18821;44.800;10.326;2024-03-07T00:48:58;9.10;99.90
32348;DHT22;18821;44.800;10.326;2024-03-07T00:51:24;9.10;99.90
32348;DHT22;18821;44.800;10.326;2024-03-07T00:53:50;9.10;99.90
32348;DHT22;18821;44.800;10.326;2024-03-07T00:56:15;9.10;99.90
32348;DHT22;18821;44.800;10.326;2024-03-07T00:58:41;9.00;99.90
32348;DHT22;18821;44.800;10.326;2024-03-07T01:01:07;9.00;99.90
32348;DHT22;18821;44.800;10.326;2024-03-07T01:03:34;9.00;99.90
32348;DHT22;18821;44.800;10.326;2024-03-07T01:06:00;9.00;99.90
32348;DHT22;18821;44.800;10.326;2024-03-07T01:08:26;8.90;99.90
32348;DHT22;18821;44.800;10.326;2024-03-07T01:10:53;8.90;99.90
32348;DHT22;18821;44.800;10.326;2024-03-07T01:13:19;8.90;99.90
32348;DHT22;18821;44.800;10.326;2024-03-07T01:15:48;8.90;99.90
32348;DHT22;18821;44.800;10.326;2024-03-07T01:18:14;8.90;99.90
32348;DHT22;18821;44.800;10.326;2024-03-07T01:20:40;8.80;99.90
32348;DHT22;18821;44.800;10.326;2024-03-07T01:23:06;8.80;99.90
32348;DHT22;18821;44.800;10.326;2024-03-07T01:25:34;8.80;99.90
32348;DHT22;18821;44.800;10.326;2024-03-07T01:28:00;8.80;99.90
32348;DHT22;18821;44.800;10.326;2024-03-07T01:30:26;8.80;99.90
32348;DHT22;18821;44.800;10.326;2024-03-07T01:32:55;8.70;99.90
32348;DHT22;18821;44.800;10.326;2024-03-07T01:35:21;8.80;99.90
32348;DHT22;18821;44.800;10.326;2024-03-07T01:37:47;8.80;99.90
32348;DHT22;18821;44.800;10.326;2024-03-07T01:40:13;8.80;99.90
32348;DHT22;18821;44.800;10.326;2024-03-07T01:42:40;8.70;99.90
32348;DHT22;18821;44.800;10.326;2024-03-07T01:45:06;8.70;99.90
32348;DHT22;18821;44.800;10.326;2024-03-07T01:47:34;8.70;99.90
32348;DHT22;18821;44.800;10.326;2024-03-07T01:50:02;8.70;99.90
32348;DHT22;18821;44.800;10.326;2024-03-07T01:52:30;8.60;99.90
32348;DHT22;18821;44.800;10.326;2024-03-07T01:54:56;8.60;99.90
32348;DHT22;18821;44.800;10.326;2024-03-07T01:57:23;8.60;99.90
32348;DHT22;18821;44.800;10.326;2024-03-07T01:59:49;8.60;99.90
32348;DHT22;18821;44.800;10.326;2024-03-07T02:02:18;8.60;99.90
32348;DHT22;18821;44.800;10.326;2024-03-07T02:04:44;8.60;99.90
32348;DHT22;18821;44.800;10.326;2024-03-07T02:07:10;8.60;99.90
32348;DHT22;18821;44.800;10.326;2024-03-07T02:09:41;8.60;99.90
32348;DHT22;18821;44.800;10.326;2024-03-07T02:12:07;8.60;99.90
32348;DHT22;18821;44.800;10.326;2024-03-07T02:14:34;8.60;99.90
32348;DHT22;18821;44.800;10.326;2024-03-07T02:17:00;8.60;99.90
32348;DHT22;18821;44.800;10.326;2024-03-07T02:19:26;8.60;99.90
32348;DHT22;18821;44.800;10.326;2024-03-07T02:21:52;8.60;99.90
32348;DHT22;18821;44.800;10.326;2024-03-07T02:24:18;8.60;99.90
32348;DHT22;18821;44.800;10.326;2024-03-07T02:26:44;8.60;99.90
32348;DHT22;18821;44.800;10.326;2024-03-07T02:29:09;8.60;99.90
32348;DHT22;18821;44.800;10.326;2024-03-07T02:31:36;8.60;99.90
32348;DHT22;18821;44.800;10.326;2024-03-07T02:34:07;8.60;99.90
32348;DHT22;18821;44.800;10.326;2024-03-07T02:36:33;8.60;99.90
32348;DHT22;18821;44.800;10.326;2024-03-07T02:39:00;8.60;99.90
32348;DHT22;18821;44.800;10.326;2024-03-07T02:41:26;8.60;99.90
32348;DHT22;18821;44.800;10.326;2024-03-07T02:43:52;8.60;99.90
32348;DHT22;18821;44.800;10.326;2024-03-07T02:46:19;8.60;99.90
32348;DHT22;18821;44.800;10.326;2024-03-07T02:48:45;8.60;99.90
32348;DHT22;18821;44.800;10.326;2024-03-07T02:51:11;8.50;99.90
32348;DHT22;18821;44.800;10.326;2024-03-07T02:53:37;8.60;99.90
32348;DHT22;18821;44.800;10.326;2024-03-07T02:56:06;8.60;99.90
32348;DHT22;18821;44.800;10.326;2024-03-07T02:58:35;8.60;99.90
32348;DHT22;18821;44.800;10.326;2024-03-07T03:01:00;8.60;99.90
32348;DHT22;18821;44.800;10.326;2024-03-07T03:03:27;8.60;99.90
32348;DHT22;18821;44.800;10.326;2024-03-07T03:05:53;8.60;99.90
32348;DHT22;18821;44.800;10.326;2024-03-07T03:08:19;8.50;99.90
32348;DHT22;18821;44.800;10.326;2024-03-07T03:10:44;8.60;99.90
32348;DHT22;18821;44.800;10.326;2024-03-07T03:13:10;8.60;99.90
32348;DHT22;18821;44.800;10.326;2024-03-07T03:15:36;8.60;99.90
32348;DHT22;18821;44.800;10.326;2024-03-07T03:18:04;8.60;99.90
32348;DHT22;18821;44.800;10.326;2024-03-07T03:20:31;8.60;99.90
32348;DHT22;18821;44.800;10.326;2024-03-07T03:23:00;8.60;99.90
32348;DHT22;18821;44.800;10.326;2024-03-07T03:25:28;8.60;99.90
32348;DHT22;18821;44.800;10.326;2024-03-07T03:27:54;8.70;99.90
32348;DHT22;18821;44.800;10.326;2024-03-07T03:30:20;8.70;99.90
32348;DHT22;18821;44.800;10.326;2024-03-07T03:32:47;8.70;99.90
32348;DHT22;18821;44.800;10.326;2024-03-07T03:35:14;8.70;99.90
32348;DHT22;18821;44.800;10.326;2024-03-07T03:37:44;8.70;99.90
32348;DHT22;18821;44.800;10.326;2024-03-07T03:40:11;8.80;99.90
32348;DHT22;18821;44.800;10.326;2024-03-07T03:42:39;8.80;99.90
32348;DHT22;18821;44.800;10.326;2024-03-07T03:45:07;8.80;99.90
32348;DHT22;18821;44.800;10.326;2024-03-07T03:47:37;8.80;99.90
32348;DHT22;18821;44.800;10.326;2024-03-07T03:50:04;8.80;99.90
32348;DHT22;18821;44.800;10.326;2024-03-07T03:52:31;8.80;99.90
32348;DHT22;18821;44.800;10.326;2024-03-07T03:55:01;8.80;99.90
32348;DHT22;18821;44.800;10.326;2024-03-07T03:57:28;8.80;99.90
32348;DHT22;18821;44.800;10.326;2024-03-07T03:59:55;8.80;99.90
32348;DHT22;18821;44.800;10.326;2024-03-07T04:02:22;8.80;99.90
32348;DHT22;18821;44.800;10.326;2024-03-07T04:04:48;8.80;99.90
32348;DHT22;18821;44.800;10.326;2024-03-07T04:07:15;8.80;99.90
32348;DHT22;18821;44.800;10.326;2024-03-07T04:09:45;8.80;99.90
32348;DHT22;18821;44.800;10.326;2024-03-07T04:12:11;8.80;99.90
32348;DHT22;18821;44.800;10.326;2024-03-07T04:14:39;8.80;99.90
32348;DHT22;18821;44.800;10.326;2024-03-07T04:17:10;8.70;99.90
32348;DHT22;18821;44.800;10.326;2024-03-07T04:19:40;8.70;99.90
32348;DHT22;18821;44.800;10.326;2024-03-07T04:22:07;8.60;99.90
32348;DHT22;18821;44.800;10.326;2024-03-07T04:24:34;8.50;99.90
32348;DHT22;18821;44.800;10.326;2024-03-07T04:27:01;8.50;99.90
32348;DHT22;18821;44.800;10.326;2024-03-07T04:29:30;8.40;99.90
32348;DHT22;18821;44.800;10.326;2024-03-07T04:31:56;8.30;99.90
32348;DHT22;18821;44.800;10.326;2024-03-07T04:34:23;8.40;99.90
32348;DHT22;18821;44.800;10.326;2024-03-07T04:36:49;8.30;99.90
32348;DHT22;18821;44.800;10.326;2024-03-07T04:39:15;8.30;99.90
32348;DHT22;18821;44.800;10.326;2024-03-07T04:42:00;8.30;99.90
32348;DHT22;18821;44.800;10.326;2024-03-07T04:44:27;8.30;99.90
32348;DHT22;18821;44.800;10.326;2024-03-07T04:46:54;8.40;99.90
32348;DHT22;18821;44.800;10.326;2024-03-07T04:49:23;8.40;99.90
32348;DHT22;18821;44.800;10.326;2024-03-07T04:51:53;8.40;99.90
32348;DHT22;18821;44.800;10.326;2024-03-07T04:54:20;8.40;99.90
32348;DHT22;18821;44.800;10.326;2024-03-07T04:56:48;8.40;99.90
32348;DHT22;18821;44.800;10.326;2024-03-07T04:59:15;8.40;99.90
32348;DHT22;18821;44.800;10.326;2024-03-07T05:01:40;8.40;99.90
32348;DHT22;18821;44.800;10.326;2024-03-07T05:04:07;8.40;99.90
32348;DHT22;18821;44.800;10.326;2024-03-07T05:06:33;8.40;99.90
32348;DHT22;18821;44.800;10.326;2024-03-07T05:09:02;8.50;99.90
32348;DHT22;18821;44.800;10.326;2024-03-07T05:11:29;8.50;99.90
32348;DHT22;18821;44.800;10.326;2024-03-07T05:13:57;8.50;99.90
32348;DHT22;18821;44.800;10.326;2024-03-07T05:16:27;8.50;99.90
32348;DHT22;18821;44.800;10.326;2024-03-07T05:18:54;8.50;99.90
32348;DHT22;18821;44.800;10.326;2024-03-07T05:21:20;8.50;99.90
32348;DHT22;18821;44.800;10.326;2024-03-07T05:24:01;8.40;99.90
32348;DHT22;18821;44.800;10.326;2024-03-07T05:26:29;8.40;99.90
32348;DHT22;18821;44.800;10.326;2024-03-07T05:29:04;8.40;99.90
32348;DHT22;18821;44.800;10.326;2024-03-07T05:31:37;8.40;99.90
32348;DHT22;18821;44.800;10.326;2024-03-07T05:34:04;8.40;99.90
32348;DHT22;18821;44.800;10.326;2024-03-07T05:36:37;8.40;99.90
32348;DHT22;18821;44.800;10.326;2024-03-07T05:39:13;8.40;99.90
32348;DHT22;18821;44.800;10.326;2024-03-07T05:41:41;8.20;99.90
32348;DHT22;18821;44.800;10.326;2024-03-07T05:44:07;8.20;99.90
32348;DHT22;18821;44.800;10.326;2024-03-07T05:46:43;8.10;99.90
32348;DHT22;18821;44.800;10.326;2024-03-07T05:49:14;8.20;99.90
32348;DHT22;18821;44.800;10.326;2024-03-07T05:51:41;8.10;99.90
32348;DHT22;18821;44.800;10.326;2024-03-07T05:54:16;8.10;99.90
32348;DHT22;18821;44.800;10.326;2024-03-07T05:56:42;8.10;99.90
32348;DHT22;18821;44.800;10.326;2024-03-07T05:59:08;8.10;99.90
32348;DHT22;18821;44.800;10.326;2024-03-07T06:01:37;8.10;99.90
32348;DHT22;18821;44.800;10.326;2024-03-07T06:04:07;8.10;99.90
32348;DHT22;18821;44.800;10.326;2024-03-07T06:06:34;8.20;99.90
32348;DHT22;18821;44.800;10.326;2024-03-07T06:09:03;8.30;99.90
32348;DHT22;18821;44.800;10.326;2024-03-07T06:11:40;8.40;99.90
32348;DHT22;18821;44.800;10.326;2024-03-07T06:14:09;8.60;99.90
32348;DHT22;18821;44.800;10.326;2024-03-07T06:16:39;8.90;99.90
32348;DHT22;18821;44.800;10.326;2024-03-07T06:19:06;9.20;99.90
32348;DHT22;18821;44.800;10.326;2024-03-07T06:21:37;9.50;99.90
32348;DHT22;18821;44.800;10.326;2024-03-07T06:24:05;9.80;99.90
32348;DHT22;18821;44.800;10.326;2024-03-07T06:26:34;10.00;99.90
32348;DHT22;18821;44.800;10.326;2024-03-07T06:29:13;10.20;99.90
32348;DHT22;18821;44.800;10.326;2024-03-07T06:31:42;10.10;99.90
32348;DHT22;18821;44.800;10.326;2024-03-07T06:34:09;9.90;99.90
32348;DHT22;18821;44.800;10.326;2024-03-07T06:36:35;9.70;99.90
32348;DHT22;18821;44.800;10.326;2024-03-07T06:39:01;9.60;99.90
32348;DHT22;18821;44.800;10.326;2024-03-07T06:41:32;9.60;99.90
32348;DHT22;18821;44.800;10.326;2024-03-07T06:43:58;9.50;99.90
32348;DHT22;18821;44.800;10.326;2024-03-07T06:46:24;9.60;99.90
32348;DHT22;18821;44.800;10.326;2024-03-07T06:48:50;9.70;99.90
32348;DHT22;18821;44.800;10.326;2024-03-07T06:51:17;9.70;99.90
32348;DHT22;18821;44.800;10.326;2024-03-07T06:53:43;9.70;99.90
32348;DHT22;18821;44.800;10.326;2024-03-07T06:56:13;9.90;99.90
32348;DHT22;18821;44.800;10.326;2024-03-07T06:58:39;9.90;99.90
32348;DHT22;18821;44.800;10.326;2024-03-07T07:01:05;10.00;99.90
32348;DHT22;18821;44.800;10.326;2024-03-07T07:03:38;10.20;99.90
32348;DHT22;18821;44.800;10.326;2024-03-07T07:06:04;10.20;99.90
32348;DHT22;18821;44.800;10.326;2024-03-07T07:08:33;10.30;99.90
32348;DHT22;18821;44.800;10.326;2024-03-07T07:10:59;10.30;99.90
32348;DHT22;18821;44.800;10.326;2024-03-07T07:13:25;10.30;99.90
32348;DHT22;18821;44.800;10.326;2024-03-07T07:15:51;10.30;99.90
32348;DHT22;18821;44.800;10.326;2024-03-07T07:18:19;10.30;99.90
32348;DHT22;18821;44.800;10.326;2024-03-07T07:20:45;10.40;99.90
32348;DHT22;18821;44.800;10.326;2024-03-07T07:23:11;10.50;99.90
32348;DHT22;18821;44.800;10.326;2024-03-07T07:25:36;10.50;99.90
32348;DHT22;18821;44.800;10.326;2024-03-07T07:28:03;10.70;99.90
32348;DHT22;18821;44.800;10.326;2024-03-07T07:30:33;10.70;99.90
32348;DHT22;18821;44.800;10.326;2024-03-07T07:32:59;10.80;99.90
32348;DHT22;18821;44.800;10.326;2024-03-07T07:35:25;10.90;99.90
32348;DHT22;18821;44.800;10.326;2024-03-07T07:37:52;10.90;99.90
32348;DHT22;18821;44.800;10.326;2024-03-07T07:40:21;10.80;99.90
32348;DHT22;18821;44.800;10.326;2024-03-07T07:42:50;10.90;99.90
32348;DHT22;18821;44.800;10.326;2024-03-07T07:45:18;11.00;99.90
32348;DHT22;18821;44.800;10.326;2024-03-07T07:47:46;11.10;99.90
32348;DHT22;18821;44.800;10.326;2024-03-07T07:50:14;11.30;99.90
32348;DHT22;18821;44.800;10.326;2024-03-07T07:52:47;11.40;99.90
32348;DHT22;18821;44.800;10.326;2024-03-07T07:55:14;11.50;99.90
32348;DHT22;18821;44.800;10.326;2024-03-07T07:57:48;11.70;99.90
32348;DHT22;18821;44.800;10.326;2024-03-07T08:00:17;11.70;99.90
32348;DHT22;18821;44.800;10.326;2024-03-07T08:02:49;11.50;99.90
32348;DHT22;18821;44.800;10.326;2024-03-07T08:05:16;10.90;99.90
32348;DHT22;18821;44.800;10.326;2024-03-07T08:07:47;10.80;99.90
32348;DHT22;18821;44.800;10.326;2024-03-07T08:10:14;11.00;99.90
32348;DHT22;18821;44.800;10.326;2024-03-07T08:12:41;10.90;99.90
32348;DHT22;18821;44.800;10.326;2024-03-07T08:15:12;10.60;99.90
32348;DHT22;18821;44.800;10.326;2024-03-07T08:17:46;10.90;99.90
32348;DHT22;18821;44.800;10.326;2024-03-07T08:20:17;11.10;99.90
32348;DHT22;18821;44.800;10.326;2024-03-07T08:22:44;11.20;99.90
32348;DHT22;18821;44.800;10.326;2024-03-07T08:25:11;11.10;99.90
32348;DHT22;18821;44.800;10.326;2024-03-07T08:27:39;11.00;99.90
32348;DHT22;18821;44.800;10.326;2024-03-07T08:30:06;11.20;99.90
32348;DHT22;18821;44.800;10.326;2024-03-07T08:32:34;11.50;99.90
32348;DHT22;18821;44.800;10.326;2024-03-07T08:35:07;11.60;99.90
32348;DHT22;18821;44.800;10.326;2024-03-07T08:37:49;11.40;99.90
32348;DHT22;18821;44.800;10.326;2024-03-07T08:40:22;11.10;99.90
32348;DHT22;18821;44.800;10.326;2024-03-07T08:42:50;11.20;99.90
32348;DHT22;18821;44.800;10.326;2024-03-07T08:45:17;10.80;99.90
32348;DHT22;18821;44.800;10.326;2024-03-07T08:47:46;10.80;99.90
32348;DHT22;18821;44.800;10.326;2024-03-07T08:50:12;11.00;99.90
32348;DHT22;18821;44.800;10.326;2024-03-07T08:52:40;10.70;99.90
32348;DHT22;18821;44.800;10.326;2024-03-07T08:55:07;11.00;99.90
32348;DHT22;18821;44.800;10.326;2024-03-07T08:57:36;11.00;99.90
32348;DHT22;18821;44.800;10.326;2024-03-07T09:00:03;10.90;99.90
32348;DHT22;18821;44.800;10.326;2024-03-07T09:02:38;11.00;99.90
32348;DHT22;18821;44.800;10.326;2024-03-07T09:05:05;11.00;99.90
32348;DHT22;18821;44.800;10.326;2024-03-07T09:07:32;11.30;99.90
32348;DHT22;18821;44.800;10.326;2024-03-07T09:09:58;11.60;99.90
32348;DHT22;18821;44.800;10.326;2024-03-07T09:12:24;11.80;99.90
32348;DHT22;18821;44.800;10.326;2024-03-07T09:14:54;12.10;99.90
32348;DHT22;18821;44.800;10.326;2024-03-07T09:17:21;12.30;99.90
32348;DHT22;18821;44.800;10.326;2024-03-07T09:19:47;12.50;99.90
32348;DHT22;18821;44.800;10.326;2024-03-07T09:22:13;12.50;99.90
32348;DHT22;18821;44.800;10.326;2024-03-07T09:24:39;12.60;99.90
32348;DHT22;18821;44.800;10.326;2024-03-07T09:27:05;12.40;99.90
32348;DHT22;18821;44.800;10.326;2024-03-07T09:29:32;12.30;99.90
32348;DHT22;18821;44.800;10.326;2024-03-07T09:31:57;12.40;99.90
32348;DHT22;18821;44.800;10.326;2024-03-07T09:34:24;12.60;99.90
32348;DHT22;18821;44.800;10.326;2024-03-07T09:36:51;12.80;99.90
32348;DHT22;18821;44.800;10.326;2024-03-07T09:39:18;12.80;99.90
32348;DHT22;18821;44.800;10.326;2024-03-07T09:41:47;12.70;99.90
32348;DHT22;18821;44.800;10.326;2024-03-07T09:44:15;12.90;99.90
32348;DHT22;18821;44.800;10.326;2024-03-07T09:46:49;13.00;99.90
32348;DHT22;18821;44.800;10.326;2024-03-07T09:49:16;13.20;99.90
32348;DHT22;18821;44.800;10.326;2024-03-07T09:51:44;13.30;99.90
32348;DHT22;18821;44.800;10.326;2024-03-07T09:54:11;13.50;99.90
32348;DHT22;18821;44.800;10.326;2024-03-07T09:56:40;13.60;99.90
32348;DHT22;18821;44.800;10.326;2024-03-07T09:59:11;13.80;99.90
32348;DHT22;18821;44.800;10.326;2024-03-07T10:01:39;14.00;99.90
32348;DHT22;18821;44.800;10.326;2024-03-07T10:04:10;13.80;99.90
32348;DHT22;18821;44.800;10.326;2024-03-07T10:06:38;13.90;99.90
32348;DHT22;18821;44.800;10.326;2024-03-07T10:09:07;13.70;99.90
32348;DHT22;18821;44.800;10.326;2024-03-07T10:11:34;13.70;99.90
32348;DHT22;18821;44.800;10.326;2024-03-07T10:14:00;13.70;99.90
32348;DHT22;18821;44.800;10.326;2024-03-07T10:16:29;13.60;99.90
32348;DHT22;18821;44.800;10.326;2024-03-07T10:18:55;13.80;99.90
32348;DHT22;18821;44.800;10.326;2024-03-07T10:21:21;14.00;99.90
32348;DHT22;18821;44.800;10.326;2024-03-07T10:23:48;14.00;99.90
32348;DHT22;18821;44.800;10.326;2024-03-07T10:26:15;13.90;99.90
32348;DHT22;18821;44.800;10.326;2024-03-07T10:28:43;14.10;99.90
32348;DHT22;18821;44.800;10.326;2024-03-07T10:31:09;13.80;99.90
32348;DHT22;18821;44.800;10.326;2024-03-07T10:33:39;13.60;99.90
32348;DHT22;18821;44.800;10.326;2024-03-07T10:36:05;13.50;99.90
32348;DHT22;18821;44.800;10.326;2024-03-07T10:38:38;13.50;99.90
32348;DHT22;18821;44.800;10.326;2024-03-07T10:41:06;13.50;99.90
32348;DHT22;18821;44.800;10.326;2024-03-07T10:43:36;13.60;99.90
32348;DHT22;18821;44.800;10.326;2024-03-07T10:46:05;13.40;99.90
32348;DHT22;18821;44.800;10.326;2024-03-07T10:48:37;13.60;99.90
32348;DHT22;18821;44.800;10.326;2024-03-07T10:51:14;13.80;99.90
32348;DHT22;18821;44.800;10.326;2024-03-07T10:53:59;14.20;99.90
32348;DHT22;18821;44.800;10.326;2024-03-07T10:57:42;14.30;99.90
32348;DHT22;18821;44.800;10.326;2024-03-07T11:00:04;14.00;99.90
32348;DHT22;18821;44.800;10.326;2024-03-07T11:02:50;14.20;99.90
32348;DHT22;18821;44.800;10.326;2024-03-07T11:05:19;14.60;99.90
32348;DHT22;18821;44.800;10.326;2024-03-07T11:07:50;14.80;99.90
32348;DHT22;18821;44.800;10.326;2024-03-07T11:10:18;15.00;99.90
32348;DHT22;18821;44.800;10.326;2024-03-07T11:12:47;14.90;99.90
32348;DHT22;18821;44.800;10.326;2024-03-07T11:15:18;15.10;99.90
32348;DHT22;18821;44.800;10.326;2024-03-07T11:17:47;14.70;99.90
32348;DHT22;18821;44.800;10.326;2024-03-07T11:20:24;14.60;99.90
32348;DHT22;18821;44.800;10.326;2024-03-07T11:22:51;14.50;99.90
32348;DHT22;18821;44.800;10.326;2024-03-07T11:25:20;14.30;99.90
32348;DHT22;18821;44.800;10.326;2024-03-07T11:28:00;14.20;99.90
32348;DHT22;18821;44.800;10.326;2024-03-07T11:30:27;14.30;99.90
32348;DHT22;18821;44.800;10.326;2024-03-07T11:32:54;14.70;99.90
32348;DHT22;18821;44.800;10.326;2024-03-07T11:35:30;14.90;99.90
32348;DHT22;18821;44.800;10.326;2024-03-07T11:37:58;15.10;99.90
32348;DHT22;18821;44.800;10.326;2024-03-07T11:42:52;15.80;99.90
32348;DHT22;18821;44.800;10.326;2024-03-07T11:45:20;15.60;99.90
32348;DHT22;18821;44.800;10.326;2024-03-07T11:47:57;15.00;99.90
32348;DHT22;18821;44.800;10.326;2024-03-07T11:50:26;14.90;99.90
32348;DHT22;18821;44.800;10.326;2024-03-07T11:52:56;14.60;99.90
32348;DHT22;18821;44.800;10.326;2024-03-07T11:55:22;14.50;99.90
32348;DHT22;18821;44.800;10.326;2024-03-07T11:57:49;14.30;99.90
32348;DHT22;18821;44.800;10.326;2024-03-07T12:00:18;14.30;99.90
32348;DHT22;18821;44.800;10.326;2024-03-07T12:02:44;14.20;99.90
32348;DHT22;18821;44.800;10.326;2024-03-07T12:05:10;14.50;99.90
32348;DHT22;18821;44.800;10.326;2024-03-07T12:07:36;14.40;99.90
32348;DHT22;18821;44.800;10.326;2024-03-07T12:10:04;14.70;99.90
32348;DHT22;18821;44.800;10.326;2024-03-07T12:12:31;14.50;99.90
32348;DHT22;18821;44.800;10.326;2024-03-07T12:14:58;14.40;99.90
32348;DHT22;18821;44.800;10.326;2024-03-07T12:17:25;14.60;99.90
32348;DHT22;18821;44.800;10.326;2024-03-07T12:19:51;14.70;99.90
32348;DHT22;18821;44.800;10.326;2024-03-07T12:22:21;15.00;99.90
32348;DHT22;18821;44.800;10.326;2024-03-07T12:25:03;15.10;99.90
32348;DHT22;18821;44.800;10.326;2024-03-07T12:27:29;15.10;99.90
32348;DHT22;18821;44.800;10.326;2024-03-07T12:29:55;15.10;99.90
32348;DHT22;18821;44.800;10.326;2024-03-07T12:32:21;14.90;99.90
32348;DHT22;18821;44.800;10.326;2024-03-07T12:34:47;14.60;99.90
32348;DHT22;18821;44.800;10.326;2024-03-07T12:37:13;14.90;99.90
32348;DHT22;18821;44.800;10.326;2024-03-07T12:39:44;14.90;99.90
32348;DHT22;18821;44.800;10.326;2024-03-07T12:42:17;14.90;99.90
32348;DHT22;18821;44.800;10.326;2024-03-07T12:44:45;14.50;99.90
32348;DHT22;18821;44.800;10.326;2024-03-07T12:47:14;14.70;99.90
32348;DHT22;18821;44.800;10.326;2024-03-07T12:49:44;15.00;99.90
32348;DHT22;18821;44.800;10.326;2024-03-07T12:52:11;15.10;99.90
32348;DHT22;18821;44.800;10.326;2024-03-07T12:54:41;15.30;99.90
32348;DHT22;18821;44.800;10.326;2024-03-07T12:57:08;15.20;99.90
32348;DHT22;18821;44.800;10.326;2024-03-07T12:59:43;14.90;99.90
32348;DHT22;18821;44.800;10.326;2024-03-07T13:02:12;14.90;99.90
32348;DHT22;18821;44.800;10.326;2024-03-07T13:04:41;15.00;99.90
32348;DHT22;18821;44.800;10.326;2024-03-07T13:07:09;15.00;99.90
32348;DHT22;18821;44.800;10.326;2024-03-07T13:09:36;15.30;99.90
32348;DHT22;18821;44.800;10.326;2024-03-07T13:12:03;15.50;99.90
32348;DHT22;18821;44.800;10.326;2024-03-07T13:14:33;15.80;99.90
32348;DHT22;18821;44.800;10.326;2024-03-07T13:17:00;15.60;99.90
32348;DHT22;18821;44.800;10.326;2024-03-07T13:19:30;15.20;99.90
32348;DHT22;18821;44.800;10.326;2024-03-07T13:21:56;14.90;99.90
32348;DHT22;18821;44.800;10.326;2024-03-07T13:24:23;14.80;99.90
32348;DHT22;18821;44.800;10.326;2024-03-07T13:26:49;14.70;99.90
32348;DHT22;18821;44.800;10.326;2024-03-07T13:29:16;14.60;99.90
32348;DHT22;18821;44.800;10.326;2024-03-07T13:31:44;14.50;99.90
32348;DHT22;18821;44.800;10.326;2024-03-07T13:34:11;14.50;99.90
32348;DHT22;18821;44.800;10.326;2024-03-07T13:36:42;14.40;99.90
32348;DHT22;18821;44.800;10.326;2024-03-07T13:39:09;14.50;99.90
32348;DHT22;18821;44.800;10.326;2024-03-07T13:41:43;14.60;99.90
32348;DHT22;18821;44.800;10.326;2024-03-07T13:44:14;14.70;99.90
32348;DHT22;18821;44.800;10.326;2024-03-07T13:46:40;14.90;99.90
32348;DHT22;18821;44.800;10.326;2024-03-07T13:49:07;14.90;99.90
32348;DHT22;18821;44.800;10.326;2024-03-07T13:51:38;14.90;99.90
32348;DHT22;18821;44.800;10.326;2024-03-07T13:54:13;15.00;99.90
32348;DHT22;18821;44.800;10.326;2024-03-07T13:57:21;15.10;99.90
32348;DHT22;18821;44.800;10.326;2024-03-07T14:00:35;15.10;99.90
32348;DHT22;18821;44.800;10.326;2024-03-07T14:12:09;14.70;99.90
32348;DHT22;18821;44.800;10.326;2024-03-07T14:23:26;15.10;99.90
32348;DHT22;18821;44.800;10.326;2024-03-07T14:31:07;15.00;99.90
32348;DHT22;18821;44.800;10.326;2024-03-07T14:34:06;14.80;99.90
32348;DHT22;18821;44.800;10.326;2024-03-07T14:36:38;14.80;99.90
32348;DHT22;18821;44.800;10.326;2024-03-07T14:39:05;14.80;99.90
32348;DHT22;18821;44.800;10.326;2024-03-07T14:41:57;14.80;99.90
32348;DHT22;18821;44.800;10.326;2024-03-07T14:44:24;14.90;99.90
32348;DHT22;18821;44.800;10.326;2024-03-07T14:47:02;15.00;99.90
32348;DHT22;18821;44.800;10.326;2024-03-07T14:49:32;15.20;99.90
32348;DHT22;18821;44.800;10.326;2024-03-07T14:51:58;15.30;99.90
32348;DHT22;18821;44.800;10.326;2024-03-07T14:54:25;15.30;99.90
32348;DHT22;18821;44.800;10.326;2024-03-07T14:56:52;15.30;99.90
32348;DHT22;18821;44.800;10.326;2024-03-07T14:59:18;15.30;99.90
32348;DHT22;18821;44.800;10.326;2024-03-07T15:01:47;15.20;99.90
32348;DHT22;18821;44.800;10.326;2024-03-07T15:04:15;15.10;99.90
32348;DHT22;18821;44.800;10.326;2024-03-07T15:06:42;15.10;99.90
32348;DHT22;18821;44.800;10.326;2024-03-07T15:09:08;15.10;99.90
32348;DHT22;18821;44.800;10.326;2024-03-07T15:11:37;15.20;99.90
32348;DHT22;18821;44.800;10.326;2024-03-07T15:14:06;15.20;99.90
32348;DHT22;18821;44.800;10.326;2024-03-07T15:16:36;15.20;99.90
32348;DHT22;18821;44.800;10.326;2024-03-07T15:19:08;15.10;99.90
32348;DHT22;18821;44.800;10.326;2024-03-07T15:21:35;15.00;99.90
32348;DHT22;18821;44.800;10.326;2024-03-07T15:24:01;15.00;99.90
32348;DHT22;18821;44.800;10.326;2024-03-07T15:26:29;15.00;99.90
32348;DHT22;18821;44.800;10.326;2024-03-07T15:28:57;14.90;99.90
32348;DHT22;18821;44.800;10.326;2024-03-07T15:31:24;14.90;99.90
32348;DHT22;18821;44.800;10.326;2024-03-07T15:33:50;15.00;99.90
32348;DHT22;18821;44.800;10.326;2024-03-07T15:36:20;14.90;99.90
32348;DHT22;18821;44.800;10.326;2024-03-07T15:38:48;14.80;99.90
32348;DHT22;18821;44.800;10.326;2024-03-07T15:41:14;14.70;99.90
32348;DHT22;18821;44.800;10.326;2024-03-07T15:43:41;14.60;99.90
32348;DHT22;18821;44.800;10.326;2024-03-07T15:46:10;14.60;99.90
32348;DHT22;18821;44.800;10.326;2024-03-07T15:48:37;14.70;99.90
32348;DHT22;18821;44.800;10.326;2024-03-07T15:51:03;14.70;99.90
32348;DHT22;18821;44.800;10.326;2024-03-07T15:53:31;14.70;99.90
32348;DHT22;18821;44.800;10.326;2024-03-07T15:56:03;14.60;99.90
32348;DHT22;18821;44.800;10.326;2024-03-07T15:58:29;14.50;99.90